sensor_id;sensor_type;location;lat;lon;timestamp;temperature;humidity
12309;DHT22;6217;48.150;17.142;2023-02-03T00:02:15;4.50;89.70
12309;DHT22;6217;48.150;17.142;2023-02-03T00:06:21;4.60;89.20
12309;DHT22;6217;48.150;17.142;2023-02-03T00:10:27;4.60;88.90
12309;DHT22;6217;48.150;17.142;2023-02-03T00:14:33;4.60;89.00
12309;DHT22;6217;48.150;17.142;2023-02-03T00:18:39;4.60;88.90
12309;DHT22;6217;48.150;17.142;2023-02-03T00:22:45;4.60;88.60
12309;DHT22;6217;48.150;17.142;2023-02-03T00:26:51;4.60;88.70
12309;DHT22;6217;48.150;17.142;2023-02-03T00:30:57;4.60;88.60
12309;DHT22;6217;48.150;17.142;2023-02-03T00:35:04;4.50;88.70
12309;DHT22;6217;48.150;17.142;2023-02-03T00:39:10;4.50;88.80
12309;DHT22;6217;48.150;17.142;2023-02-03T00:43:16;4.50;89.00
12309;DHT22;6217;48.150;17.142;2023-02-03T00:47:22;4.50;89.00
12309;DHT22;6217;48.150;17.142;2023-02-03T00:51:29;4.50;89.00
12309;DHT22;6217;48.150;17.142;2023-02-03T00:55:35;4.50;88.80
12309;DHT22;6217;48.150;17.142;2023-02-03T00:59:41;4.40;88.90
12309;DHT22;6217;48.150;17.142;2023-02-03T01:03:48;4.50;88.90
12309;DHT22;6217;48.150;17.142;2023-02-03T01:07:55;4.40;89.00
12309;DHT22;6217;48.150;17.142;2023-02-03T01:12:01;4.40;89.00
12309;DHT22;6217;48.150;17.142;2023-02-03T01:16:12;4.40;89.00
12309;DHT22;6217;48.150;17.142;2023-02-03T01:20:21;4.30;89.00
12309;DHT22;6217;48.150;17.142;2023-02-03T01:24:28;4.30;89.10
12309;DHT22;6217;48.150;17.142;2023-02-03T01:28:35;4.20;89.10
12309;DHT22;6217;48.150;17.142;2023-02-03T01:32:41;4.10;89.40
12309;DHT22;6217;48.150;17.142;2023-02-03T01:36:47;4.10;89.40
12309;DHT22;6217;48.150;17.142;2023-02-03T01:40:53;4.10;89.40
12309;DHT22;6217;48.150;17.142;2023-02-03T01:44:59;4.10;89.50
12309;DHT22;6217;48.150;17.142;2023-02-03T01:49:16;4.00;89.60
12309;DHT22;6217;48.150;17.142;2023-02-03T01:53:24;4.00;89.60
12309;DHT22;6217;48.150;17.142;2023-02-03T01:57:39;4.00;89.70
12309;DHT22;6217;48.150;17.142;2023-02-03T02:01:54;3.90;89.80
12309;DHT22;6217;48.150;17.142;2023-02-03T02:06:04;3.90;89.80
12309;DHT22;6217;48.150;17.142;2023-02-03T02:10:11;3.90;90.00
12309;DHT22;6217;48.150;17.142;2023-02-03T02:14:20;3.90;90.00
12309;DHT22;6217;48.150;17.142;2023-02-03T02:18:39;3.90;90.00
12309;DHT22;6217;48.150;17.142;2023-02-03T02:28:22;4.00;90.00
12309;DHT22;6217;48.150;17.142;2023-02-03T02:33:25;3.90;90.10
12309;DHT22;6217;48.150;17.142;2023-02-03T02:42:23;3.90;90.00
12309;DHT22;6217;48.150;17.142;2023-02-03T02:46:46;3.80;90.00
12309;DHT22;6217;48.150;17.142;2023-02-03T02:50:56;3.70;90.20
12309;DHT22;6217;48.150;17.142;2023-02-03T02:55:09;3.80;90.30
12309;DHT22;6217;48.150;17.142;2023-02-03T02:59:18;3.70;90.30
12309;DHT22;6217;48.150;17.142;2023-02-03T03:03:25;3.80;90.40
12309;DHT22;6217;48.150;17.142;2023-02-03T03:08:08;3.80;90.40
12309;DHT22;6217;48.150;17.142;2023-02-03T03:16:25;3.90;90.30
12309;DHT22;6217;48.150;17.142;2023-02-03T03:20:34;4.10;90.40
12309;DHT22;6217;48.150;17.142;2023-02-03T03:24:54;4.10;90.40
12309;DHT22;6217;48.150;17.142;2023-02-03T03:33:22;4.40;90.40
12309;DHT22;6217;48.150;17.142;2023-02-03T03:37:35;4.60;90.40
12309;DHT22;6217;48.150;17.142;2023-02-03T03:41:48;4.70;90.20
12309;DHT22;6217;48.150;17.142;2023-02-03T03:46:11;4.80;90.20
12309;DHT22;6217;48.150;17.142;2023-02-03T03:50:22;4.80;90.20
12309;DHT22;6217;48.150;17.142;2023-02-03T03:54:32;4.80;90.30
12309;DHT22;6217;48.150;17.142;2023-02-03T03:58:41;4.80;90.20
12309;DHT22;6217;48.150;17.142;2023-02-03T04:02:52;4.80;90.30
12309;DHT22;6217;48.150;17.142;2023-02-03T04:07:00;4.90;90.30
12309;DHT22;6217;48.150;17.142;2023-02-03T04:11:06;4.90;90.30
12309;DHT22;6217;48.150;17.142;2023-02-03T04:15:13;5.00;90.30
12309;DHT22;6217;48.150;17.142;2023-02-03T04:19:18;5.10;90.20
12309;DHT22;6217;48.150;17.142;2023-02-03T04:23:24;5.10;90.10
12309;DHT22;6217;48.150;17.142;2023-02-03T04:27:30;5.20;90.60
12309;DHT22;6217;48.150;17.142;2023-02-03T04:31:37;5.20;90.20
12309;DHT22;6217;48.150;17.142;2023-02-03T04:35:45;5.30;90.10
12309;DHT22;6217;48.150;17.142;2023-02-03T04:39:55;5.40;90.10
12309;DHT22;6217;48.150;17.142;2023-02-03T04:44:01;5.50;90.00
12309;DHT22;6217;48.150;17.142;2023-02-03T04:48:06;5.50;89.70
12309;DHT22;6217;48.150;17.142;2023-02-03T04:52:12;5.50;90.00
12309;DHT22;6217;48.150;17.142;2023-02-03T04:56:18;5.60;89.80
12309;DHT22;6217;48.150;17.142;2023-02-03T05:00:25;5.60;90.00
12309;DHT22;6217;48.150;17.142;2023-02-03T05:04:32;5.60;89.90
12309;DHT22;6217;48.150;17.142;2023-02-03T05:08:38;5.60;90.10
12309;DHT22;6217;48.150;17.142;2023-02-03T05:12:43;5.60;90.00
12309;DHT22;6217;48.150;17.142;2023-02-03T05:16:49;5.60;90.10
12309;DHT22;6217;48.150;17.142;2023-02-03T05:20:55;5.50;90.20
12309;DHT22;6217;48.150;17.142;2023-02-03T05:25:02;5.40;90.40
12309;DHT22;6217;48.150;17.142;2023-02-03T05:29:09;5.40;90.50
12309;DHT22;6217;48.150;17.142;2023-02-03T05:33:16;5.30;90.60
12309;DHT22;6217;48.150;17.142;2023-02-03T05:37:22;5.20;90.80
12309;DHT22;6217;48.150;17.142;2023-02-03T05:41:28;5.10;91.00
12309;DHT22;6217;48.150;17.142;2023-02-03T05:45:52;5.00;91.20
12309;DHT22;6217;48.150;17.142;2023-02-03T05:49:58;5.00;91.20
12309;DHT22;6217;48.150;17.142;2023-02-03T05:54:04;5.00;91.30
12309;DHT22;6217;48.150;17.142;2023-02-03T05:58:11;4.90;91.40
12309;DHT22;6217;48.150;17.142;2023-02-03T06:02:16;4.80;91.50
12309;DHT22;6217;48.150;17.142;2023-02-03T06:06:22;4.80;91.70
12309;DHT22;6217;48.150;17.142;2023-02-03T06:10:28;4.80;91.70
12309;DHT22;6217;48.150;17.142;2023-02-03T06:14:34;4.80;91.70
12309;DHT22;6217;48.150;17.142;2023-02-03T06:18:40;4.80;91.70
12309;DHT22;6217;48.150;17.142;2023-02-03T06:22:46;4.70;91.70
12309;DHT22;6217;48.150;17.142;2023-02-03T06:26:52;4.60;91.90
12309;DHT22;6217;48.150;17.142;2023-02-03T06:30:58;4.50;91.90
12309;DHT22;6217;48.150;17.142;2023-02-03T06:35:10;4.50;92.10
12309;DHT22;6217;48.150;17.142;2023-02-03T06:39:16;4.50;92.20
12309;DHT22;6217;48.150;17.142;2023-02-03T06:43:22;4.50;92.30
12309;DHT22;6217;48.150;17.142;2023-02-03T06:47:28;4.50;92.20
12309;DHT22;6217;48.150;17.142;2023-02-03T06:51:34;4.50;92.40
12309;DHT22;6217;48.150;17.142;2023-02-03T06:55:40;4.50;92.40
12309;DHT22;6217;48.150;17.142;2023-02-03T06:59:46;4.40;92.60
12309;DHT22;6217;48.150;17.142;2023-02-03T07:03:52;4.50;92.80
12309;DHT22;6217;48.150;17.142;2023-02-03T07:07:57;4.50;92.60
12309;DHT22;6217;48.150;17.142;2023-02-03T07:12:04;4.60;92.60
12309;DHT22;6217;48.150;17.142;2023-02-03T07:16:11;4.60;92.40
12309;DHT22;6217;48.150;17.142;2023-02-03T07:20:17;4.60;92.50
12309;DHT22;6217;48.150;17.142;2023-02-03T07:24:23;4.70;92.50
12309;DHT22;6217;48.150;17.142;2023-02-03T07:28:30;4.70;92.50
12309;DHT22;6217;48.150;17.142;2023-02-03T07:32:36;4.70;92.40
12309;DHT22;6217;48.150;17.142;2023-02-03T07:36:42;4.70;92.70
12309;DHT22;6217;48.150;17.142;2023-02-03T07:40:48;4.70;92.50
12309;DHT22;6217;48.150;17.142;2023-02-03T07:44:54;4.50;92.50
12309;DHT22;6217;48.150;17.142;2023-02-03T07:49:00;4.50;92.70
12309;DHT22;6217;48.150;17.142;2023-02-03T07:53:08;4.30;92.70
12309;DHT22;6217;48.150;17.142;2023-02-03T07:57:14;4.30;92.90
12309;DHT22;6217;48.150;17.142;2023-02-03T08:01:20;4.10;93.10
12309;DHT22;6217;48.150;17.142;2023-02-03T08:05:26;4.00;93.10
12309;DHT22;6217;48.150;17.142;2023-02-03T08:09:32;3.90;93.30
12309;DHT22;6217;48.150;17.142;2023-02-03T08:13:38;3.90;93.30
12309;DHT22;6217;48.150;17.142;2023-02-03T08:17:44;3.90;93.70
12309;DHT22;6217;48.150;17.142;2023-02-03T08:21:50;3.90;93.30
12309;DHT22;6217;48.150;17.142;2023-02-03T08:25:56;3.80;93.30
12309;DHT22;6217;48.150;17.142;2023-02-03T08:30:03;3.80;93.40
12309;DHT22;6217;48.150;17.142;2023-02-03T08:34:09;3.90;93.40
12309;DHT22;6217;48.150;17.142;2023-02-03T08:38:16;4.00;93.40
12309;DHT22;6217;48.150;17.142;2023-02-03T08:42:22;4.10;93.30
12309;DHT22;6217;48.150;17.142;2023-02-03T08:46:28;4.10;93.30
12309;DHT22;6217;48.150;17.142;2023-02-03T08:50:33;4.10;93.30
12309;DHT22;6217;48.150;17.142;2023-02-03T08:54:39;4.10;93.30
12309;DHT22;6217;48.150;17.142;2023-02-03T08:58:45;4.10;93.40
12309;DHT22;6217;48.150;17.142;2023-02-03T09:02:51;4.10;93.40
12309;DHT22;6217;48.150;17.142;2023-02-03T09:06:57;4.10;93.40
12309;DHT22;6217;48.150;17.142;2023-02-03T09:11:08;4.10;93.40
12309;DHT22;6217;48.150;17.142;2023-02-03T09:15:15;4.00;93.60
12309;DHT22;6217;48.150;17.142;2023-02-03T09:19:21;4.10;93.80
12309;DHT22;6217;48.150;17.142;2023-02-03T09:23:27;4.30;93.60
12309;DHT22;6217;48.150;17.142;2023-02-03T09:27:33;4.30;93.60
12309;DHT22;6217;48.150;17.142;2023-02-03T09:31:38;4.40;93.70
12309;DHT22;6217;48.150;17.142;2023-02-03T09:35:55;4.40;93.70
12309;DHT22;6217;48.150;17.142;2023-02-03T09:40:02;4.50;93.70
12309;DHT22;6217;48.150;17.142;2023-02-03T09:44:16;4.50;93.70
12309;DHT22;6217;48.150;17.142;2023-02-03T09:48:33;4.60;93.80
12309;DHT22;6217;48.150;17.142;2023-02-03T09:52:42;4.60;93.70
12309;DHT22;6217;48.150;17.142;2023-02-03T09:56:49;4.60;93.80
12309;DHT22;6217;48.150;17.142;2023-02-03T10:01:02;4.80;93.80
12309;DHT22;6217;48.150;17.142;2023-02-03T10:05:19;5.00;93.90
12309;DHT22;6217;48.150;17.142;2023-02-03T10:15:10;5.20;93.70
12309;DHT22;6217;48.150;17.142;2023-02-03T10:19:35;5.30;93.40
12309;DHT22;6217;48.150;17.142;2023-02-03T10:23:43;5.30;93.60
12309;DHT22;6217;48.150;17.142;2023-02-03T10:27:55;5.30;93.60
12309;DHT22;6217;48.150;17.142;2023-02-03T10:32:11;5.30;93.80
12309;DHT22;6217;48.150;17.142;2023-02-03T10:36:26;5.40;93.60
12309;DHT22;6217;48.150;17.142;2023-02-03T10:40:38;5.60;93.80
12309;DHT22;6217;48.150;17.142;2023-02-03T10:44:59;5.60;93.50
12309;DHT22;6217;48.150;17.142;2023-02-03T10:49:05;5.50;93.80
12309;DHT22;6217;48.150;17.142;2023-02-03T10:53:24;5.40;93.70
12309;DHT22;6217;48.150;17.142;2023-02-03T10:57:37;5.30;94.00
12309;DHT22;6217;48.150;17.142;2023-02-03T11:01:47;5.40;94.00
12309;DHT22;6217;48.150;17.142;2023-02-03T11:06:14;5.40;94.20
12309;DHT22;6217;48.150;17.142;2023-02-03T11:10:32;5.70;94.00
12309;DHT22;6217;48.150;17.142;2023-02-03T11:14:44;5.80;93.80
12309;DHT22;6217;48.150;17.142;2023-02-03T11:18:58;5.80;93.80
12309;DHT22;6217;48.150;17.142;2023-02-03T11:23:05;6.40;94.40
12309;DHT22;6217;48.150;17.142;2023-02-03T11:27:16;7.00;94.00
12309;DHT22;6217;48.150;17.142;2023-02-03T11:31:28;7.60;93.70
12309;DHT22;6217;48.150;17.142;2023-02-03T11:35:36;7.90;93.30
12309;DHT22;6217;48.150;17.142;2023-02-03T11:39:44;8.20;93.00
12309;DHT22;6217;48.150;17.142;2023-02-03T11:43:54;8.40;92.70
12309;DHT22;6217;48.150;17.142;2023-02-03T11:52:47;8.70;92.30
12309;DHT22;6217;48.150;17.142;2023-02-03T12:15:23;8.70;91.80
12309;DHT22;6217;48.150;17.142;2023-02-03T12:20:17;8.50;92.00
12309;DHT22;6217;48.150;17.142;2023-02-03T12:29:03;8.30;92.40
12309;DHT22;6217;48.150;17.142;2023-02-03T12:33:16;8.30;92.50
12309;DHT22;6217;48.150;17.142;2023-02-03T12:37:26;8.40;92.60
12309;DHT22;6217;48.150;17.142;2023-02-03T12:41:41;8.40;92.50
12309;DHT22;6217;48.150;17.142;2023-02-03T12:45:54;8.30;92.50
12309;DHT22;6217;48.150;17.142;2023-02-03T12:54:43;8.30;92.70
12309;DHT22;6217;48.150;17.142;2023-02-03T12:58:56;8.20;92.80
12309;DHT22;6217;48.150;17.142;2023-02-03T13:08:31;7.80;93.50
12309;DHT22;6217;48.150;17.142;2023-02-03T13:12:46;7.80;93.70
12309;DHT22;6217;48.150;17.142;2023-02-03T13:17:09;7.70;93.80
12309;DHT22;6217;48.150;17.142;2023-02-03T13:21:17;7.80;93.90
12309;DHT22;6217;48.150;17.142;2023-02-03T13:30:26;7.80;93.80
12309;DHT22;6217;48.150;17.142;2023-02-03T13:43:30;8.00;93.70
12309;DHT22;6217;48.150;17.142;2023-02-03T13:47:38;8.10;93.60
12309;DHT22;6217;48.150;17.142;2023-02-03T13:51:45;8.10;93.50
12309;DHT22;6217;48.150;17.142;2023-02-03T13:56:00;8.20;93.50
12309;DHT22;6217;48.150;17.142;2023-02-03T14:04:53;8.30;93.20
12309;DHT22;6217;48.150;17.142;2023-02-03T14:09:00;8.30;93.10
12309;DHT22;6217;48.150;17.142;2023-02-03T14:13:19;8.20;93.20
12309;DHT22;6217;48.150;17.142;2023-02-03T14:21:51;8.00;93.50
12309;DHT22;6217;48.150;17.142;2023-02-03T14:25:59;7.90;93.70
12309;DHT22;6217;48.150;17.142;2023-02-03T14:30:14;7.80;94.00
12309;DHT22;6217;48.150;17.142;2023-02-03T14:34:32;7.70;94.20
12309;DHT22;6217;48.150;17.142;2023-02-03T14:38:40;7.50;94.50
12309;DHT22;6217;48.150;17.142;2023-02-03T15:01:26;7.20;95.40
12309;DHT22;6217;48.150;17.142;2023-02-03T15:06:01;7.20;95.60
12309;DHT22;6217;48.150;17.142;2023-02-03T15:10:15;7.20;95.60
12309;DHT22;6217;48.150;17.142;2023-02-03T15:14:24;7.20;95.70
12309;DHT22;6217;48.150;17.142;2023-02-03T15:18:36;7.20;95.80
12309;DHT22;6217;48.150;17.142;2023-02-03T15:22:42;7.30;95.80
12309;DHT22;6217;48.150;17.142;2023-02-03T15:26:53;7.30;95.80
12309;DHT22;6217;48.150;17.142;2023-02-03T15:31:05;7.40;95.70
12309;DHT22;6217;48.150;17.142;2023-02-03T15:35:17;7.40;95.70
12309;DHT22;6217;48.150;17.142;2023-02-03T15:40:05;7.50;95.70
12309;DHT22;6217;48.150;17.142;2023-02-03T15:44:34;7.50;95.60
12309;DHT22;6217;48.150;17.142;2023-02-03T15:48:51;7.60;95.40
12309;DHT22;6217;48.150;17.142;2023-02-03T15:53:13;7.60;95.30
12309;DHT22;6217;48.150;17.142;2023-02-03T15:57:25;7.70;95.20
12309;DHT22;6217;48.150;17.142;2023-02-03T16:01:33;7.70;95.10
12309;DHT22;6217;48.150;17.142;2023-02-03T16:05:40;7.70;95.00
12309;DHT22;6217;48.150;17.142;2023-02-03T16:09:46;7.80;95.00
12309;DHT22;6217;48.150;17.142;2023-02-03T16:13:58;7.80;94.90
12309;DHT22;6217;48.150;17.142;2023-02-03T16:18:15;7.80;94.70
12309;DHT22;6217;48.150;17.142;2023-02-03T16:22:27;7.90;94.70
12309;DHT22;6217;48.150;17.142;2023-02-03T16:26:39;8.00;94.50
12309;DHT22;6217;48.150;17.142;2023-02-03T16:35:31;8.00;94.30
12309;DHT22;6217;48.150;17.142;2023-02-03T16:39:56;8.00;94.30
12309;DHT22;6217;48.150;17.142;2023-02-03T16:44:20;8.10;94.20
12309;DHT22;6217;48.150;17.142;2023-02-03T16:48:45;8.10;94.00
12309;DHT22;6217;48.150;17.142;2023-02-03T16:53:28;8.00;94.20
12309;DHT22;6217;48.150;17.142;2023-02-03T16:57:35;8.00;93.80
12309;DHT22;6217;48.150;17.142;2023-02-03T17:01:41;8.10;93.80
12309;DHT22;6217;48.150;17.142;2023-02-03T17:05:47;8.10;93.60
12309;DHT22;6217;48.150;17.142;2023-02-03T17:09:54;8.00;93.60
12309;DHT22;6217;48.150;17.142;2023-02-03T17:14:00;8.10;93.60
12309;DHT22;6217;48.150;17.142;2023-02-03T17:18:06;8.20;93.50
12309;DHT22;6217;48.150;17.142;2023-02-03T17:22:12;8.20;93.40
12309;DHT22;6217;48.150;17.142;2023-02-03T17:26:18;8.20;93.30
12309;DHT22;6217;48.150;17.142;2023-02-03T17:30:24;8.30;93.30
12309;DHT22;6217;48.150;17.142;2023-02-03T17:34:30;8.40;93.20
12309;DHT22;6217;48.150;17.142;2023-02-03T17:38:42;8.40;93.10
12309;DHT22;6217;48.150;17.142;2023-02-03T17:42:52;8.40;92.90
12309;DHT22;6217;48.150;17.142;2023-02-03T17:46:58;8.50;93.10
12309;DHT22;6217;48.150;17.142;2023-02-03T17:51:12;8.60;92.80
12309;DHT22;6217;48.150;17.142;2023-02-03T17:55:20;8.60;92.70
12309;DHT22;6217;48.150;17.142;2023-02-03T17:59:26;8.70;92.70
12309;DHT22;6217;48.150;17.142;2023-02-03T18:03:32;8.70;92.70
12309;DHT22;6217;48.150;17.142;2023-02-03T18:07:38;8.60;92.80
12309;DHT22;6217;48.150;17.142;2023-02-03T18:11:44;8.50;92.80
12309;DHT22;6217;48.150;17.142;2023-02-03T18:15:50;8.50;93.10
12309;DHT22;6217;48.150;17.142;2023-02-03T18:19:56;8.50;93.30
12309;DHT22;6217;48.150;17.142;2023-02-03T18:24:05;8.60;93.30
12309;DHT22;6217;48.150;17.142;2023-02-03T18:28:12;8.40;93.20
12309;DHT22;6217;48.150;17.142;2023-02-03T18:32:18;8.00;93.60
12309;DHT22;6217;48.150;17.142;2023-02-03T18:36:25;7.80;93.90
12309;DHT22;6217;48.150;17.142;2023-02-03T18:40:32;7.60;94.10
12309;DHT22;6217;48.150;17.142;2023-02-03T18:44:41;7.50;94.20
12309;DHT22;6217;48.150;17.142;2023-02-03T18:48:48;7.50;94.10
12309;DHT22;6217;48.150;17.142;2023-02-03T18:52:55;7.60;94.10
12309;DHT22;6217;48.150;17.142;2023-02-03T18:57:01;7.60;94.10
12309;DHT22;6217;48.150;17.142;2023-02-03T19:01:08;7.60;94.20
12309;DHT22;6217;48.150;17.142;2023-02-03T19:05:15;7.50;94.20
12309;DHT22;6217;48.150;17.142;2023-02-03T19:09:21;7.50;94.20
12309;DHT22;6217;48.150;17.142;2023-02-03T19:13:28;7.50;94.10
12309;DHT22;6217;48.150;17.142;2023-02-03T19:17:34;7.50;94.10
12309;DHT22;6217;48.150;17.142;2023-02-03T19:21:39;7.50;94.00
12309;DHT22;6217;48.150;17.142;2023-02-03T19:25:49;7.50;94.10
12309;DHT22;6217;48.150;17.142;2023-02-03T19:29:56;7.40;93.90
12309;DHT22;6217;48.150;17.142;2023-02-03T19:34:02;7.40;93.90
12309;DHT22;6217;48.150;17.142;2023-02-03T19:38:08;7.40;93.90
12309;DHT22;6217;48.150;17.142;2023-02-03T19:42:14;7.40;93.90
12309;DHT22;6217;48.150;17.142;2023-02-03T19:46:20;7.40;93.80
12309;DHT22;6217;48.150;17.142;2023-02-03T19:50:26;7.40;93.80
12309;DHT22;6217;48.150;17.142;2023-02-03T19:54:32;7.40;93.70
12309;DHT22;6217;48.150;17.142;2023-02-03T19:58:39;7.50;93.60
12309;DHT22;6217;48.150;17.142;2023-02-03T20:02:45;7.40;93.60
12309;DHT22;6217;48.150;17.142;2023-02-03T20:06:50;7.40;93.60
12309;DHT22;6217;48.150;17.142;2023-02-03T20:10:56;7.40;93.60
12309;DHT22;6217;48.150;17.142;2023-02-03T20:15:02;7.30;93.60
12309;DHT22;6217;48.150;17.142;2023-02-03T20:19:09;7.40;93.60
12309;DHT22;6217;48.150;17.142;2023-02-03T20:23:15;7.40;93.50
12309;DHT22;6217;48.150;17.142;2023-02-03T20:27:21;7.30;93.50
12309;DHT22;6217;48.150;17.142;2023-02-03T20:31:27;7.30;93.50
12309;DHT22;6217;48.150;17.142;2023-02-03T20:35:33;7.30;93.40
12309;DHT22;6217;48.150;17.142;2023-02-03T20:39:39;7.30;93.50
12309;DHT22;6217;48.150;17.142;2023-02-03T20:43:44;7.30;93.50
12309;DHT22;6217;48.150;17.142;2023-02-03T20:47:50;7.30;93.40
12309;DHT22;6217;48.150;17.142;2023-02-03T20:51:56;7.30;93.30
12309;DHT22;6217;48.150;17.142;2023-02-03T20:56:10;7.30;93.20
12309;DHT22;6217;48.150;17.142;2023-02-03T21:00:24;7.40;93.10
12309;DHT22;6217;48.150;17.142;2023-02-03T21:04:30;7.40;93.00
12309;DHT22;6217;48.150;17.142;2023-02-03T21:09:00;7.40;92.90
12309;DHT22;6217;48.150;17.142;2023-02-03T21:13:33;7.40;92.80
12309;DHT22;6217;48.150;17.142;2023-02-03T21:17:40;7.40;92.70
12309;DHT22;6217;48.150;17.142;2023-02-03T21:21:46;7.40;92.70
12309;DHT22;6217;48.150;17.142;2023-02-03T21:25:55;7.50;92.60
12309;DHT22;6217;48.150;17.142;2023-02-03T21:30:21;7.50;92.50
12309;DHT22;6217;48.150;17.142;2023-02-03T21:34:34;7.60;92.40
12309;DHT22;6217;48.150;17.142;2023-02-03T21:38:40;7.60;92.40
12309;DHT22;6217;48.150;17.142;2023-02-03T21:42:46;7.50;92.40
12309;DHT22;6217;48.150;17.142;2023-02-03T21:46:52;7.40;92.40
12309;DHT22;6217;48.150;17.142;2023-02-03T21:51:16;7.30;92.50
12309;DHT22;6217;48.150;17.142;2023-02-03T21:55:25;7.20;92.70
12309;DHT22;6217;48.150;17.142;2023-02-03T21:59:38;7.10;92.80
12309;DHT22;6217;48.150;17.142;2023-02-03T22:03:51;7.00;92.90
12309;DHT22;6217;48.150;17.142;2023-02-03T22:07:58;6.90;93.10
12309;DHT22;6217;48.150;17.142;2023-02-03T22:12:04;6.90;93.20
12309;DHT22;6217;48.150;17.142;2023-02-03T22:16:11;6.90;93.30
12309;DHT22;6217;48.150;17.142;2023-02-03T22:20:18;6.90;93.40
12309;DHT22;6217;48.150;17.142;2023-02-03T22:24:24;6.90;93.50
12309;DHT22;6217;48.150;17.142;2023-02-03T22:28:30;7.00;93.60
12309;DHT22;6217;48.150;17.142;2023-02-03T22:32:36;7.00;93.60
12309;DHT22;6217;48.150;17.142;2023-02-03T22:36:42;7.00;93.60
12309;DHT22;6217;48.150;17.142;2023-02-03T22:40:48;7.10;93.70
12309;DHT22;6217;48.150;17.142;2023-02-03T22:44:54;7.10;93.70
12309;DHT22;6217;48.150;17.142;2023-02-03T22:49:00;7.10;93.70
12309;DHT22;6217;48.150;17.142;2023-02-03T22:53:06;7.10;93.70
12309;DHT22;6217;48.150;17.142;2023-02-03T22:57:13;7.20;93.80
12309;DHT22;6217;48.150;17.142;2023-02-03T23:01:19;7.20;93.70
12309;DHT22;6217;48.150;17.142;2023-02-03T23:05:25;7.30;93.60
12309;DHT22;6217;48.150;17.142;2023-02-03T23:09:31;7.30;93.60
12309;DHT22;6217;48.150;17.142;2023-02-03T23:13:37;7.30;93.60
12309;DHT22;6217;48.150;17.142;2023-02-03T23:17:43;7.40;93.50
12309;DHT22;6217;48.150;17.142;2023-02-03T23:21:49;7.50;93.40
12309;DHT22;6217;48.150;17.142;2023-02-03T23:25:55;7.60;93.30
12309;DHT22;6217;48.150;17.142;2023-02-03T23:30:01;7.70;93.10
12309;DHT22;6217;48.150;17.142;2023-02-03T23:34:08;7.70;93.00
12309;DHT22;6217;48.150;17.142;2023-02-03T23:38:33;7.70;92.80
12309;DHT22;6217;48.150;17.142;2023-02-03T23:42:40;7.70;92.70
12309;DHT22;6217;48.150;17.142;2023-02-03T23:46:46;7.70;92.50
12309;DHT22;6217;48.150;17.142;2023-02-03T23:50:52;7.70;92.50
12309;DHT22;6217;48.150;17.142;2023-02-03T23:54:58;7.70;92.40
12309;DHT22;6217;48.150;17.142;2023-02-03T23:59:04;7.60;92.40
